createdAt,value
2019-03-28T00:01:58.366Z,18.87
2019-03-28T00:03:59.436Z,18.40
2019-03-28T00:06:00.286Z,25.60
2019-03-28T00:08:01.138Z,21.23
2019-03-28T00:10:02.591Z,22.30
2019-03-28T00:12:03.690Z,25.33
2019-03-28T00:14:04.601Z,25.10
2019-03-28T00:16:05.766Z,22.63
2019-03-28T00:18:06.613Z,23.77
2019-03-28T00:20:07.477Z,23.40
2019-03-28T00:22:08.878Z,19.17
2019-03-28T00:24:14.606Z,21.73
2019-03-28T00:26:15.458Z,23.30
2019-03-28T00:28:16.361Z,24.10
2019-03-28T00:30:19.180Z,18.53
2019-03-28T00:32:20.185Z,21.07
2019-03-28T00:34:21.093Z,18.37
2019-03-28T00:36:21.937Z,21.10
2019-03-28T00:38:22.798Z,24.10
2019-03-28T00:40:23.697Z,17.63
2019-03-28T00:42:24.565Z,20.40
2019-03-28T00:44:25.413Z,22.50
2019-03-28T00:46:26.281Z,21.03
2019-03-28T00:48:27.224Z,17.50
2019-03-28T00:50:28.205Z,21.10
2019-03-28T00:52:29.669Z,18.17
2019-03-28T00:54:32.809Z,18.50
2019-03-28T00:56:46.509Z,18.43
2019-03-28T00:58:36.406Z,22.57
2019-03-28T01:00:37.265Z,16.83
2019-03-28T01:02:38.110Z,17.07
2019-03-28T01:04:39.175Z,20.40
2019-03-28T01:06:40.033Z,20.80
2019-03-28T01:08:40.886Z,17.27
2019-03-28T01:10:42.109Z,17.30
2019-03-28T01:12:43.065Z,19.90
2019-03-28T01:14:43.965Z,18.67
2019-03-28T01:16:45.493Z,20.57
2019-03-28T01:18:46.342Z,18.20
2019-03-28T01:20:47.205Z,14.77
2019-03-28T01:22:48.105Z,16.73
2019-03-28T01:24:48.945Z,17.07
2019-03-28T01:26:57.144Z,19.73
2019-03-28T01:28:53.170Z,18.03
2019-03-28T01:30:54.129Z,17.90
2019-03-28T01:32:54.984Z,19.60
2019-03-28T01:34:55.862Z,18.40
2019-03-28T01:36:56.719Z,20.17
2019-03-28T01:38:57.573Z,19.20
2019-03-28T01:40:58.674Z,19.77
2019-03-28T01:42:59.519Z,17.63
2019-03-28T01:45:00.381Z,19.93
2019-03-28T01:47:01.269Z,25.17
2019-03-28T01:49:03.703Z,20.27
2019-03-28T01:51:04.677Z,19.37
2019-03-28T01:53:05.825Z,17.90
2019-03-28T01:55:06.664Z,20.43
2019-03-28T01:57:11.146Z,18.20
2019-03-28T01:59:10.301Z,22.30
2019-03-28T02:01:11.157Z,16.80
2019-03-28T02:03:12.001Z,18.33
2019-03-28T02:05:13.065Z,27.50
2019-03-28T02:07:14.033Z,18.53
2019-03-28T02:09:14.882Z,17.87
2019-03-28T02:11:15.776Z,19.57
2019-03-28T02:13:16.628Z,17.87
2019-03-28T02:15:17.529Z,20.50
2019-03-28T02:17:18.394Z,19.47
2019-03-28T02:19:19.382Z,19.40
2019-03-28T02:21:20.481Z,22.40
2019-03-28T02:23:21.737Z,27.87
2019-03-28T02:25:22.594Z,20.20
2019-03-28T02:27:24.608Z,18.23
2019-03-28T02:29:25.853Z,19.43
2019-03-28T02:31:26.806Z,16.40
2019-03-28T02:33:27.670Z,21.60
2019-03-28T02:35:28.535Z,17.03
2019-03-28T02:37:29.399Z,19.97
2019-03-28T02:39:30.263Z,16.50
2019-03-28T02:41:31.166Z,14.67
2019-03-28T02:43:32.010Z,16.20
2019-03-28T02:45:32.997Z,16.67
2019-03-28T02:47:34.128Z,17.77
2019-03-28T02:49:35.119Z,19.23
2019-03-28T02:51:35.986Z,20.67
2019-03-28T02:53:36.860Z,21.40
2019-03-28T02:55:37.862Z,19.87
2019-03-28T02:57:42.064Z,22.50
2019-03-28T02:59:41.654Z,22.10
2019-03-28T03:01:42.519Z,22.53
2019-03-28T03:03:43.391Z,22.93
2019-03-28T03:05:44.270Z,23.23
2019-03-28T03:07:45.194Z,20.57
2019-03-28T03:09:46.031Z,21.47
2019-03-28T03:11:46.908Z,22.50
2019-03-28T03:13:47.834Z,24.07
2019-03-28T03:15:48.738Z,21.47
2019-03-28T03:17:49.621Z,19.83
2019-03-28T03:19:51.410Z,20.80
2019-03-28T03:21:52.458Z,19.43
2019-03-28T03:23:53.342Z,19.63
2019-03-28T03:25:54.209Z,22.23
2019-03-28T03:27:58.614Z,21.07
2019-03-28T03:29:58.094Z,24.17
2019-03-28T03:31:58.942Z,19.73
2019-03-28T03:33:59.828Z,20.63
2019-03-28T03:36:00.678Z,24.43
2019-03-28T03:38:01.542Z,20.67
2019-03-28T03:40:02.389Z,21.13
2019-03-28T03:42:03.334Z,20.30
2019-03-28T03:44:04.270Z,21.33
2019-03-28T03:46:05.141Z,20.00
2019-03-28T03:48:06.414Z,22.23
2019-03-28T03:50:07.258Z,20.20
2019-03-28T03:52:08.161Z,24.53
2019-03-28T03:54:09.040Z,18.53
2019-03-28T03:56:09.894Z,18.83
2019-03-28T03:58:15.957Z,18.53
2019-03-28T04:00:13.545Z,21.20
2019-03-28T04:02:14.443Z,20.87
2019-03-28T04:04:15.397Z,21.27
2019-03-28T04:06:16.470Z,19.17
2019-03-28T04:08:17.434Z,19.70
2019-03-28T04:10:18.285Z,21.53
2019-03-28T04:12:19.159Z,19.27
2019-03-28T04:14:20.437Z,20.03
2019-03-28T04:16:21.401Z,20.83
2019-03-28T04:18:22.602Z,21.17
2019-03-28T04:20:24.888Z,20.83
2019-03-28T04:22:26.194Z,20.80
2019-03-28T04:24:27.066Z,20.70
2019-03-28T04:26:27.930Z,22.77
2019-03-28T04:28:32.422Z,24.07
2019-03-28T04:30:31.630Z,20.67
2019-03-28T04:32:32.508Z,23.40
2019-03-28T04:34:33.357Z,22.17
2019-03-28T04:36:34.224Z,22.83
2019-03-28T04:38:35.097Z,18.13
2019-03-28T04:40:35.958Z,17.10
2019-03-28T04:42:37.262Z,20.30
2019-03-28T04:44:38.165Z,17.10
2019-03-28T04:46:39.025Z,17.23
2019-03-28T04:48:40.041Z,19.47
2019-03-28T04:50:40.897Z,17.07
2019-03-28T04:52:41.814Z,18.83
2019-03-28T04:54:42.684Z,18.33
2019-03-28T04:56:43.542Z,18.07
2019-03-28T04:58:45.067Z,18.85
2019-03-28T05:00:46.095Z,14.80
2019-03-28T05:02:46.950Z,18.20
2019-03-28T05:04:47.794Z,16.07
2019-03-28T05:06:48.709Z,16.93
2019-03-28T05:08:49.581Z,18.07
2019-03-28T05:10:50.438Z,17.40
2019-03-28T05:12:51.530Z,18.43
2019-03-28T05:14:52.662Z,16.57
2019-03-28T05:16:54.481Z,18.97
2019-03-28T05:18:55.403Z,17.70
2019-03-28T05:20:56.434Z,21.20
2019-03-28T05:22:57.261Z,18.93
2019-03-28T05:24:58.609Z,18.30
2019-03-28T05:27:00.094Z,14.87
2019-03-28T05:29:00.966Z,17.23
2019-03-28T05:31:03.777Z,17.37
2019-03-28T05:33:04.818Z,9.53
2019-03-28T05:35:05.726Z,19.97
2019-03-28T05:37:06.622Z,15.27
2019-03-28T05:39:07.474Z,18.80
2019-03-28T05:41:08.337Z,16.40
2019-03-28T05:43:09.522Z,18.73
2019-03-28T05:45:10.374Z,19.03
2019-03-28T05:47:11.238Z,25.37
2019-03-28T05:49:12.123Z,23.33
2019-03-28T05:51:13.002Z,21.63
2019-03-28T05:53:13.865Z,21.70
2019-03-28T05:55:14.932Z,21.40
2019-03-28T05:57:15.782Z,19.73
2019-03-28T05:59:16.627Z,19.20
2019-03-28T06:01:17.877Z,19.73
2019-03-28T06:03:18.730Z,19.40
2019-03-28T06:05:19.574Z,19.33
2019-03-28T06:07:20.490Z,17.43
2019-03-28T06:09:21.384Z,20.27
2019-03-28T06:11:22.265Z,19.33
2019-03-28T06:13:23.157Z,20.43
2019-03-28T06:15:24.019Z,20.10
2019-03-28T06:17:25.058Z,21.27
2019-03-28T06:22:02.796Z,21.97
2019-03-28T06:24:03.658Z,20.33
2019-03-28T06:26:04.538Z,21.77
2019-03-28T06:28:05.418Z,19.70
2019-03-28T06:30:06.284Z,21.23
2019-03-28T06:32:07.126Z,20.50
2019-03-28T06:34:08.109Z,21.20
2019-03-28T06:36:08.978Z,23.40
2019-03-28T06:38:09.849Z,21.87
2019-03-28T06:40:10.727Z,22.97
2019-03-28T06:42:11.590Z,20.40
2019-03-28T06:44:12.433Z,20.17
2019-03-28T06:46:13.449Z,19.83
2019-03-28T06:48:14.334Z,21.60
2019-03-28T06:50:15.197Z,21.50
2019-03-28T06:52:16.226Z,21.73
2019-03-28T06:54:17.093Z,19.37
2019-03-28T06:56:17.962Z,21.53
2019-03-28T06:58:19.222Z,20.40
2019-03-28T07:00:20.110Z,20.07
2019-03-28T07:02:22.086Z,18.73
2019-03-28T07:04:23.356Z,18.20
2019-03-28T07:06:24.226Z,15.73
2019-03-28T07:08:25.445Z,19.20
2019-03-28T07:10:26.497Z,17.10
2019-03-28T07:12:27.358Z,18.33
2019-03-28T07:14:28.333Z,18.03
2019-03-28T07:16:29.873Z,17.70
2019-03-28T07:18:30.825Z,21.17
2019-03-28T07:20:31.683Z,17.57
2019-03-28T07:22:32.898Z,18.23
2019-03-28T07:24:33.749Z,17.93
2019-03-28T07:26:34.602Z,18.67
2019-03-28T07:28:35.498Z,17.83
2019-03-28T07:30:36.354Z,15.70
2019-03-28T07:32:37.225Z,16.07
2019-03-28T07:34:38.080Z,16.20
2019-03-28T07:36:39.280Z,17.60
2019-03-28T07:38:40.145Z,15.60
2019-03-28T07:40:41.026Z,17.10
2019-03-28T07:42:41.886Z,15.40
2019-03-28T07:44:42.741Z,14.23
2019-03-28T07:46:43.622Z,16.90
2019-03-28T07:48:44.481Z,16.17
2019-03-28T07:50:45.358Z,14.73
2019-03-28T07:52:46.249Z,14.23
2019-03-28T07:54:48.822Z,15.43
2019-03-28T07:59:19.948Z,15.77
2019-03-28T08:01:20.808Z,20.93
2019-03-28T08:03:21.676Z,14.37
2019-03-28T08:05:22.655Z,15.57
2019-03-28T08:09:36.816Z,12.33
2019-03-28T08:11:36.856Z,12.57
2019-03-28T08:13:37.918Z,11.10
2019-03-28T08:17:48.839Z,12.03
2019-03-28T08:19:49.754Z,10.27
2019-03-28T08:21:50.607Z,11.00
2019-03-28T08:23:51.490Z,8.13
2019-03-28T08:25:52.344Z,9.07
2019-03-28T08:27:53.209Z,8.13
2019-03-28T08:29:54.125Z,10.40
2019-03-28T08:31:55.282Z,7.40
2019-03-28T08:33:56.251Z,8.63
2019-03-28T08:35:57.134Z,7.60
2019-03-28T08:37:57.989Z,10.43
2019-03-28T08:39:58.853Z,10.17
2019-03-28T08:42:00.497Z,8.37
2019-03-28T08:44:01.358Z,7.53
2019-03-28T08:46:02.241Z,6.53
2019-03-28T08:48:03.508Z,8.10
2019-03-28T08:50:04.376Z,9.03
2019-03-28T08:52:05.225Z,8.97
2019-03-28T08:54:06.138Z,6.47
2019-03-28T08:56:06.977Z,7.87
2019-03-28T08:58:07.826Z,9.53
2019-03-28T09:00:09.938Z,8.47
2019-03-28T09:02:10.810Z,8.07
2019-03-28T09:04:11.664Z,7.50
2019-03-28T09:06:12.537Z,8.87
2019-03-28T09:08:13.403Z,7.80
2019-03-28T09:10:14.266Z,8.33
2019-03-28T09:12:15.150Z,8.63
2019-03-28T09:14:15.994Z,6.37
2019-03-28T09:16:16.848Z,7.40
2019-03-28T09:18:18.254Z,7.57
2019-03-28T09:20:19.178Z,10.90
2019-03-28T09:22:20.029Z,7.77
2019-03-28T09:24:20.891Z,7.13
2019-03-28T09:26:21.756Z,6.97
2019-03-28T09:28:22.614Z,8.70
2019-03-28T09:30:23.509Z,7.87
2019-03-28T09:32:24.363Z,8.53
2019-03-28T09:34:25.227Z,7.73
2019-03-28T09:36:26.121Z,7.57
2019-03-28T09:38:26.999Z,10.10
2019-03-28T09:40:27.845Z,8.97
2019-03-28T09:42:28.734Z,8.97
2019-03-28T09:44:30.292Z,7.17
2019-03-28T09:46:31.866Z,8.47
2019-03-28T09:48:32.733Z,8.00
2019-03-28T09:50:33.585Z,9.60
2019-03-28T09:52:34.441Z,6.87
2019-03-28T09:54:35.335Z,8.57
2019-03-28T09:56:36.162Z,8.03
2019-03-28T09:58:37.019Z,8.50
2019-03-28T10:00:38.027Z,9.53
2019-03-28T10:02:38.989Z,8.00
2019-03-28T10:04:39.830Z,8.63
2019-03-28T10:06:40.706Z,9.90
2019-03-28T10:08:41.565Z,9.60
2019-03-28T10:10:42.401Z,8.50
2019-03-28T10:12:44.211Z,8.73
2019-03-28T10:14:45.373Z,9.33
2019-03-28T10:16:46.231Z,8.07
2019-03-28T10:18:47.136Z,9.97
2019-03-28T10:20:48.042Z,10.33
2019-03-28T10:22:48.902Z,8.50
2019-03-28T10:24:49.768Z,7.53
2019-03-28T10:26:50.617Z,9.77
2019-03-28T10:28:51.462Z,7.67
2019-03-28T10:30:52.463Z,8.13
2019-03-28T10:32:53.325Z,8.83
2019-03-28T10:34:54.189Z,8.50
2019-03-28T10:36:55.070Z,7.87
2019-03-28T10:38:55.914Z,7.30
2019-03-28T10:40:56.769Z,8.37
2019-03-28T10:42:57.851Z,8.13
2019-03-28T10:44:58.837Z,10.67
2019-03-28T10:46:59.700Z,8.33
2019-03-28T10:49:00.862Z,8.73
2019-03-28T10:51:01.717Z,7.57
2019-03-28T10:53:02.556Z,8.40
2019-03-28T10:55:03.974Z,8.10
2019-03-28T10:57:13.718Z,6.27
2019-03-28T10:59:07.643Z,9.80
2019-03-28T11:01:08.798Z,8.37
2019-03-28T11:03:09.676Z,10.13
2019-03-28T11:05:10.533Z,9.27
2019-03-28T11:07:11.461Z,8.43
2019-03-28T11:09:12.299Z,6.43
2019-03-28T11:11:13.142Z,8.77
2019-03-28T11:13:14.445Z,7.73
2019-03-28T11:15:15.309Z,7.43
2019-03-28T11:17:16.166Z,6.50
2019-03-28T11:19:17.639Z,7.93
2019-03-28T11:21:18.890Z,8.10
2019-03-28T11:23:19.835Z,8.07
2019-03-28T11:25:20.682Z,7.33
2019-03-28T11:27:21.542Z,6.10
2019-03-28T11:29:22.398Z,8.07
2019-03-28T11:31:23.317Z,7.00
2019-03-28T11:33:24.176Z,7.97
2019-03-28T11:35:25.051Z,7.30
2019-03-28T11:37:26.836Z,6.37
2019-03-28T11:39:28.698Z,6.10
2019-03-28T11:41:29.571Z,8.60
2019-03-28T11:43:30.458Z,6.07
2019-03-28T11:45:31.309Z,6.83
2019-03-28T11:47:32.169Z,10.47
2019-03-28T11:49:33.058Z,4.87
2019-03-28T11:51:36.291Z,6.50
2019-03-28T11:53:36.690Z,5.63
2019-03-28T11:55:37.590Z,4.90
2019-03-28T11:57:38.442Z,5.87
2019-03-28T11:59:39.289Z,6.30
2019-03-28T12:01:40.176Z,6.07
2019-03-28T12:03:41.028Z,6.50
2019-03-28T12:05:41.872Z,6.57
2019-03-28T12:07:42.746Z,5.30
2019-03-28T12:09:43.597Z,4.10
2019-03-28T12:11:44.456Z,4.17
2019-03-28T12:13:45.696Z,5.00
2019-03-28T12:15:46.551Z,5.33
2019-03-28T12:17:47.407Z,4.27
2019-03-28T12:19:48.478Z,4.23
2019-03-28T12:21:49.448Z,5.30
2019-03-28T12:23:50.309Z,4.70
2019-03-28T12:25:51.184Z,5.37
2019-03-28T12:27:52.038Z,4.23
2019-03-28T12:29:52.887Z,3.87
2019-03-28T12:31:53.761Z,5.73
2019-03-28T12:33:54.618Z,7.03
2019-03-28T12:35:55.471Z,6.30
2019-03-28T12:37:56.341Z,7.67
2019-03-28T12:39:59.886Z,5.00
2019-03-28T12:42:00.094Z,7.97
2019-03-28T12:44:01.090Z,6.27
2019-03-28T12:46:01.971Z,7.33
2019-03-28T12:48:02.850Z,7.87
2019-03-28T12:50:04.118Z,8.40
2019-03-28T12:52:04.974Z,7.13
2019-03-28T12:54:05.862Z,6.13
2019-03-28T12:56:06.748Z,8.27
2019-03-28T12:58:07.623Z,8.43
2019-03-28T13:00:08.470Z,6.20
2019-03-28T13:02:09.374Z,6.93
2019-03-28T13:04:10.242Z,7.33
2019-03-28T13:06:11.122Z,6.57
2019-03-28T13:08:12.037Z,7.10
2019-03-28T13:10:12.920Z,7.53
2019-03-28T13:12:13.783Z,6.40
2019-03-28T13:14:14.670Z,7.10
2019-03-28T13:16:15.678Z,7.27
2019-03-28T13:18:16.578Z,8.27
2019-03-28T13:20:17.574Z,7.70
2019-03-28T13:22:18.535Z,6.63
2019-03-28T13:24:19.383Z,9.90
2019-03-28T13:26:20.419Z,10.03
2019-03-28T13:28:21.400Z,8.20
2019-03-28T13:30:22.275Z,8.90
2019-03-28T13:32:23.158Z,7.70
2019-03-28T13:34:24.022Z,10.50
2019-03-28T13:36:24.879Z,6.73
2019-03-28T13:38:25.770Z,7.50
2019-03-28T13:40:26.644Z,7.37
2019-03-28T13:42:27.486Z,6.70
2019-03-28T13:44:30.223Z,6.87
2019-03-28T13:46:31.155Z,5.90
2019-03-28T13:48:32.015Z,5.33
2019-03-28T13:50:32.885Z,6.40
2019-03-28T13:52:33.742Z,8.77
2019-03-28T13:54:34.601Z,7.77
2019-03-28T13:56:38.414Z,5.47
2019-03-28T13:58:38.250Z,8.73
2019-03-28T14:00:39.113Z,8.53
2019-03-28T14:02:40.098Z,6.10
2019-03-28T14:04:41.001Z,7.80
2019-03-28T14:06:41.862Z,7.33
2019-03-28T14:08:42.816Z,6.43
2019-03-28T14:10:43.671Z,5.87
2019-03-28T14:12:44.530Z,5.70
2019-03-28T14:14:45.402Z,4.77
2019-03-28T14:16:46.272Z,6.93
2019-03-28T14:18:47.132Z,4.30
2019-03-28T14:20:48.292Z,3.43
2019-03-28T14:22:49.215Z,4.20
2019-03-28T14:24:50.073Z,4.93
2019-03-28T14:26:50.982Z,3.93
2019-03-28T14:28:51.842Z,3.93
2019-03-28T14:30:52.700Z,4.87
2019-03-28T14:32:54.060Z,3.90
2019-03-28T14:34:55.078Z,5.77
2019-03-28T14:36:55.931Z,6.67
2019-03-28T14:38:56.854Z,5.33
2019-03-28T14:40:58.432Z,4.20
2019-03-28T14:43:00.789Z,5.67
2019-03-28T14:45:01.959Z,5.60
2019-03-28T14:47:02.849Z,7.77
2019-03-28T14:49:03.752Z,7.00
2019-03-28T14:51:04.919Z,6.20
2019-03-28T14:53:05.891Z,7.37
2019-03-28T14:55:06.862Z,7.60
2019-03-28T14:57:07.754Z,7.80
2019-03-28T14:59:08.627Z,8.50
2019-03-28T15:01:09.489Z,11.27
2019-03-28T15:03:24.565Z,10.13
2019-03-28T15:05:13.150Z,9.90
2019-03-28T15:07:14.002Z,8.33
2019-03-28T15:09:14.894Z,10.03
2019-03-28T15:11:15.771Z,8.30
2019-03-28T15:13:16.623Z,7.83
2019-03-28T15:15:17.522Z,7.23
2019-03-28T15:17:18.394Z,6.90
2019-03-28T15:19:19.245Z,8.73
2019-03-28T15:21:20.550Z,7.20
2019-03-28T15:23:21.478Z,5.10
2019-03-28T15:25:22.337Z,8.37
2019-03-28T15:27:23.274Z,9.50
2019-03-28T15:29:24.142Z,5.10
2019-03-28T15:31:25.002Z,5.50
2019-03-28T15:33:38.612Z,5.80
2019-03-28T15:35:28.670Z,5.50
2019-03-28T15:37:29.525Z,7.67
2019-03-28T15:39:31.597Z,6.83
2019-03-28T15:41:32.881Z,5.77
2019-03-28T15:43:33.758Z,7.07
2019-03-28T15:45:34.639Z,5.50
2019-03-28T15:47:35.509Z,5.93
2019-03-28T15:49:36.412Z,5.13
2019-03-28T15:51:37.731Z,6.40
2019-03-28T15:53:38.850Z,4.83
2019-03-28T15:55:39.690Z,4.90
2019-03-28T15:57:40.921Z,4.77
2019-03-28T15:59:41.962Z,5.03
2019-03-28T16:01:42.826Z,6.40
2019-03-28T16:03:52.800Z,6.20
2019-03-28T16:05:57.660Z,4.57
2019-03-28T16:07:49.255Z,5.87
2019-03-28T16:09:51.022Z,4.80
2019-03-28T16:12:02.042Z,5.20
2019-03-28T16:13:54.655Z,4.57
2019-03-28T16:15:55.546Z,4.13
2019-03-28T16:17:57.774Z,6.10
2019-03-28T16:19:58.802Z,5.33
2019-03-28T16:21:59.702Z,5.33
2019-03-28T16:24:00.568Z,3.97
2019-03-28T16:26:01.419Z,4.50
2019-03-28T16:28:02.302Z,4.13
2019-03-28T16:30:03.146Z,5.93
2019-03-28T16:32:04.014Z,4.90
2019-03-28T16:34:07.116Z,4.90
2019-03-28T16:36:07.670Z,4.43
2019-03-28T16:38:08.529Z,4.50
2019-03-28T16:40:10.346Z,7.27
2019-03-28T16:42:11.213Z,4.60
2019-03-28T16:44:12.062Z,4.40
2019-03-28T16:46:13.050Z,4.00
2019-03-28T16:48:13.910Z,7.23
2019-03-28T16:50:14.778Z,7.43
2019-03-28T16:52:16.061Z,3.97
2019-03-28T16:54:16.947Z,4.80
2019-03-28T16:56:17.922Z,4.60
2019-03-28T16:58:19.821Z,3.83
2019-03-28T17:00:21.081Z,4.97
2019-03-28T17:02:21.942Z,4.13
2019-03-28T17:04:23.063Z,5.37
2019-03-28T17:06:55.763Z,4.77
2019-03-28T17:08:57.292Z,4.37
2019-03-28T17:10:58.863Z,6.33
2019-03-28T17:13:00.370Z,4.53
2019-03-28T17:15:01.893Z,4.30
2019-03-28T17:17:03.479Z,5.73
2019-03-28T17:19:05.002Z,4.80
2019-03-28T17:21:06.636Z,5.33
2019-03-28T17:23:09.768Z,4.27
2019-03-28T17:25:11.401Z,4.60
2019-03-28T17:27:12.937Z,4.63
2019-03-28T17:29:14.884Z,4.40
2019-03-28T17:31:16.512Z,5.37
2019-03-28T17:33:18.164Z,4.57
2019-03-28T17:35:19.887Z,4.90
2019-03-28T17:37:21.410Z,4.80
2019-03-28T17:39:22.950Z,4.57
2019-03-28T17:41:24.512Z,5.83
2019-03-28T17:43:26.055Z,6.80
2019-03-28T17:45:27.586Z,4.50
2019-03-28T17:47:29.259Z,4.43
2019-03-28T17:49:30.780Z,5.57
2019-03-28T17:51:32.307Z,5.83
2019-03-28T17:53:33.897Z,5.43
2019-03-28T17:55:35.438Z,6.30
2019-03-28T17:57:36.954Z,5.08
2019-03-28T17:59:38.550Z,6.50
2019-03-28T18:01:41.141Z,6.30
2019-03-28T18:03:42.666Z,6.60
2019-03-28T18:05:57.152Z,6.63
2019-03-28T18:07:47.638Z,4.70
2019-03-28T18:09:49.160Z,4.40
2019-03-28T18:11:50.825Z,4.00
2019-03-28T18:13:52.359Z,5.27
2019-03-28T18:15:53.881Z,5.00
2019-03-28T18:17:55.433Z,5.00
2019-03-28T18:19:56.962Z,6.83
2019-03-28T18:22:03.599Z,6.53
2019-03-28T18:24:02.253Z,6.57
2019-03-28T18:26:03.865Z,8.17
2019-03-28T18:28:05.391Z,6.33
2019-03-28T18:30:07.027Z,5.60
2019-03-28T18:32:08.849Z,6.87
2019-03-28T18:34:12.385Z,6.83
2019-03-28T18:36:14.320Z,5.33
2019-03-28T18:38:15.966Z,5.40
2019-03-28T18:40:17.481Z,6.70
2019-03-28T18:42:19.379Z,6.00
2019-03-28T18:44:20.909Z,6.83
2019-03-28T18:46:22.443Z,7.43
2019-03-28T18:48:30.846Z,8.20
2019-03-28T18:50:27.433Z,7.40
2019-03-28T18:52:28.954Z,7.67
2019-03-28T18:54:30.564Z,8.53
2019-03-28T18:56:32.187Z,7.17
2019-03-28T18:58:33.810Z,9.53
2019-03-28T19:00:35.694Z,9.20
2019-03-28T19:02:37.498Z,6.93
2019-03-28T19:04:39.047Z,8.13
2019-03-28T19:06:40.950Z,8.63
2019-03-28T19:08:42.482Z,9.63
2019-03-28T19:10:44.010Z,8.40
2019-03-28T19:12:45.554Z,8.20
2019-03-28T19:14:47.090Z,10.67
2019-03-28T19:16:52.029Z,9.60
2019-03-28T19:18:52.218Z,10.03
2019-03-28T19:20:55.320Z,8.80
2019-03-28T19:22:56.842Z,9.60
2019-03-28T19:24:58.508Z,8.77
2019-03-28T19:27:00.059Z,8.83
2019-03-28T19:29:01.602Z,11.13
2019-03-28T19:31:03.143Z,12.07
2019-03-28T19:33:07.316Z,9.10
2019-03-28T19:35:08.999Z,9.73
2019-03-28T19:37:10.550Z,9.63
2019-03-28T19:39:14.065Z,8.30
2019-03-28T19:41:15.685Z,9.73
2019-03-28T19:43:20.947Z,8.50
2019-03-28T19:45:31.002Z,11.17
2019-03-28T19:47:32.534Z,8.53
2019-03-28T19:49:34.077Z,10.90
2019-03-28T19:51:35.826Z,9.67
2019-03-28T19:53:37.352Z,9.10
2019-03-28T19:55:40.122Z,9.97
2019-03-28T19:57:41.789Z,9.47
2019-03-28T19:59:43.288Z,12.80
2019-03-28T20:01:45.006Z,9.40
2019-03-28T20:03:47.101Z,9.40
2019-03-28T20:05:50.096Z,11.93
2019-03-28T20:07:51.912Z,9.90
2019-03-28T20:09:53.553Z,10.30
2019-03-28T20:11:55.194Z,11.30
2019-03-28T20:13:56.734Z,12.90
2019-03-28T20:15:58.253Z,11.03
2019-03-28T20:17:59.865Z,10.53
2019-03-28T20:20:01.570Z,12.83
2019-03-28T20:22:04.497Z,13.43
2019-03-28T20:24:06.209Z,9.70
2019-03-28T20:26:07.895Z,10.70
2019-03-28T20:28:09.491Z,11.20
2019-03-28T20:30:11.122Z,10.67
2019-03-28T20:32:12.665Z,10.67
2019-03-28T20:34:14.204Z,10.27
2019-03-28T20:36:36.430Z,11.23
2019-03-28T20:38:19.358Z,10.03
2019-03-28T20:40:20.904Z,12.80
2019-03-28T20:42:22.414Z,11.37
2019-03-28T20:44:24.415Z,11.50
2019-03-28T20:46:25.934Z,11.37
2019-03-28T20:48:27.484Z,10.43
2019-03-28T20:50:31.741Z,10.77
2019-03-28T20:52:32.764Z,10.33
2019-03-28T20:54:34.278Z,10.97
2019-03-28T20:56:35.823Z,9.70
2019-03-28T20:58:37.509Z,10.70
2019-03-28T21:00:40.137Z,11.37
2019-03-28T21:02:41.678Z,11.67
2019-03-28T21:04:43.295Z,10.17
2019-03-28T21:06:44.834Z,14.20
2019-03-28T21:08:46.405Z,10.90
2019-03-28T21:10:50.831Z,11.03
2019-03-28T21:12:52.926Z,11.77
2019-03-28T21:14:54.586Z,12.73
2019-03-28T21:16:58.117Z,10.90
2019-03-28T21:18:59.645Z,13.00
2019-03-28T21:21:01.229Z,13.20
2019-03-28T21:23:05.123Z,11.73
2019-03-28T21:25:06.311Z,13.00
2019-03-28T21:27:08.097Z,15.07
2019-03-28T21:29:09.631Z,10.83
2019-03-28T21:31:11.155Z,10.67
2019-03-28T21:33:15.025Z,10.80
2019-03-28T21:35:16.240Z,11.87
2019-03-28T21:37:17.768Z,13.00
2019-03-28T21:39:19.436Z,10.97
2019-03-28T21:41:21.072Z,10.90
2019-03-28T21:43:22.693Z,11.17
2019-03-28T21:45:24.348Z,10.93
2019-03-28T21:47:25.863Z,11.33
2019-03-28T21:49:27.369Z,15.60
2019-03-28T21:51:28.930Z,12.00
2019-03-28T21:53:30.662Z,11.83
2019-03-28T21:55:32.177Z,13.47
2019-03-28T21:57:34.141Z,12.50
2019-03-28T21:59:35.659Z,10.40
2019-03-28T22:01:37.185Z,13.83
2019-03-28T22:03:39.957Z,12.13
2019-03-28T22:05:41.625Z,10.57
2019-03-28T22:07:43.149Z,13.30
2019-03-28T22:09:44.793Z,14.07
2019-03-28T22:11:46.302Z,11.80
2019-03-28T22:13:47.877Z,11.13
2019-03-28T22:15:49.466Z,13.03
2019-03-28T22:17:51.080Z,12.07
2019-03-28T22:19:52.707Z,13.80
2019-03-28T22:21:54.279Z,11.50
2019-03-28T22:23:55.808Z,15.33
2019-03-28T22:25:57.313Z,12.17
2019-03-28T22:27:58.865Z,10.93
2019-03-28T22:30:00.485Z,12.40
2019-03-28T22:32:02.074Z,12.03
2019-03-28T22:34:03.637Z,13.07
2019-03-28T22:36:05.174Z,11.60
2019-03-28T22:38:06.685Z,15.83
2019-03-28T22:40:11.484Z,14.07
2019-03-28T22:42:11.666Z,11.53
2019-03-28T22:44:14.395Z,13.73
2019-03-28T22:46:16.018Z,12.33
2019-03-28T22:48:17.521Z,12.33
2019-03-28T22:50:19.038Z,13.20
2019-03-28T22:52:20.585Z,12.97
2019-03-28T22:54:22.090Z,14.43
2019-03-28T22:56:23.831Z,14.80
2019-03-28T22:58:25.453Z,13.13
2019-03-28T23:00:46.521Z,12.40
2019-03-28T23:02:48.034Z,13.23
2019-03-28T23:04:49.749Z,12.73
2019-03-28T23:06:51.269Z,13.10
2019-03-28T23:08:52.798Z,14.10
2019-03-28T23:10:54.373Z,12.47
2019-03-28T23:12:56.005Z,13.30
2019-03-28T23:14:57.522Z,12.33
2019-03-28T23:16:59.080Z,13.57
2019-03-28T23:19:00.741Z,13.33
2019-03-28T23:21:02.259Z,13.40
2019-03-28T23:23:04.137Z,12.80
2019-03-28T23:25:05.670Z,13.03
2019-03-28T23:27:07.185Z,14.23
2019-03-28T23:29:08.729Z,12.93
2019-03-28T23:31:10.298Z,13.60
2019-03-28T23:33:11.811Z,13.00
2019-03-28T23:35:13.409Z,12.87
2019-03-28T23:37:24.758Z,13.63
2019-03-28T23:39:19.189Z,13.40
2019-03-28T23:41:21.743Z,11.33
2019-03-28T23:43:23.341Z,13.07
2019-03-28T23:45:24.854Z,12.70
2019-03-28T23:47:26.397Z,15.20
2019-03-28T23:49:27.920Z,13.43
2019-03-28T23:51:29.439Z,13.47
2019-03-28T23:53:31.287Z,14.17
2019-03-28T23:55:32.809Z,16.07
2019-03-28T23:57:34.322Z,14.43
2019-03-28T23:59:35.871Z,14.57
